Terminal Aerodrome Forecast
Issued by NWS Wilmington, OH

Current Version | Previous Version | Text Only | Print | Product List | Glossary Off
Versions: 1 2 3 4 5 6 7 8 9 10 11 12 13 14 15 16 17 18 19 20 21

000
FTUS41 KILN 240900 AAA
TAFDAY
TAF AMD
KDAY 240955Z 2410/2506 04010KT P6SM SCT025 OVC035
      TEMPO 2410/2413 OVC025
     FM241300 06008KT P6SM OVC035
     FM242100 08008KT P6SM VCSH BKN035
     FM250300 12011KT P6SM VCSH OVC040=

USA.gov is the U.S. government's official web portal to all federal, state and local government web resources and services.